sensor_id;sensor_type;location;lat;lon;timestamp;P1;durP1;ratioP1;P2;durP2;ratioP2
48375;SDS011;34178;50.904;11.560;2022-12-13T00:01:35;29.25;;;11.50;;
48375;SDS011;34178;50.904;11.560;2022-12-13T00:04:02;24.77;;;9.80;;
48375;SDS011;34178;50.904;11.560;2022-12-13T00:06:30;25.37;;;10.40;;
48375;SDS011;34178;50.904;11.560;2022-12-13T00:08:56;31.60;;;10.75;;
48375;SDS011;34178;50.904;11.560;2022-12-13T00:11:23;28.30;;;10.85;;
48375;SDS011;34178;50.904;11.560;2022-12-13T00:13:48;27.23;;;9.30;;
48375;SDS011;34178;50.904;11.560;2022-12-13T00:16:15;28.35;;;10.80;;
48375;SDS011;34178;50.904;11.560;2022-12-13T00:18:43;32.58;;;12.40;;
48375;SDS011;34178;50.904;11.560;2022-12-13T00:21:12;31.65;;;12.00;;
48375;SDS011;34178;50.904;11.560;2022-12-13T00:23:39;32.22;;;13.40;;
48375;SDS011;34178;50.904;11.560;2022-12-13T00:26:07;27.33;;;11.95;;
48375;SDS011;34178;50.904;11.560;2022-12-13T00:28:37;24.35;;;11.07;;
48375;SDS011;34178;50.904;11.560;2022-12-13T00:31:03;28.85;;;11.77;;
48375;SDS011;34178;50.904;11.560;2022-12-13T00:33:30;25.15;;;11.98;;
48375;SDS011;34178;50.904;11.560;2022-12-13T00:35:56;23.17;;;9.45;;
48375;SDS011;34178;50.904;11.560;2022-12-13T00:38:22;25.85;;;11.13;;
48375;SDS011;34178;50.904;11.560;2022-12-13T00:40:48;22.70;;;9.70;;
48375;SDS011;34178;50.904;11.560;2022-12-13T00:43:16;31.67;;;12.95;;
48375;SDS011;34178;50.904;11.560;2022-12-13T00:45:42;25.77;;;10.93;;
48375;SDS011;34178;50.904;11.560;2022-12-13T00:48:08;25.63;;;10.68;;
48375;SDS011;34178;50.904;11.560;2022-12-13T00:50:34;29.50;;;11.73;;
48375;SDS011;34178;50.904;11.560;2022-12-13T00:52:59;27.30;;;11.07;;
48375;SDS011;34178;50.904;11.560;2022-12-13T00:55:26;23.95;;;10.30;;
48375;SDS011;34178;50.904;11.560;2022-12-13T00:57:52;29.70;;;11.25;;
48375;SDS011;34178;50.904;11.560;2022-12-13T01:00:18;25.30;;;11.82;;
48375;SDS011;34178;50.904;11.560;2022-12-13T01:02:44;28.05;;;10.85;;
48375;SDS011;34178;50.904;11.560;2022-12-13T01:05:10;19.63;;;9.38;;
48375;SDS011;34178;50.904;11.560;2022-12-13T01:07:37;28.30;;;11.38;;
48375;SDS011;34178;50.904;11.560;2022-12-13T01:10:03;25.15;;;10.35;;
48375;SDS011;34178;50.904;11.560;2022-12-13T01:12:31;29.33;;;13.73;;
48375;SDS011;34178;50.904;11.560;2022-12-13T01:14:57;24.30;;;11.45;;
48375;SDS011;34178;50.904;11.560;2022-12-13T01:17:23;31.98;;;13.98;;
48375;SDS011;34178;50.904;11.560;2022-12-13T01:19:49;38.20;;;14.73;;
48375;SDS011;34178;50.904;11.560;2022-12-13T01:22:15;32.58;;;12.48;;
48375;SDS011;34178;50.904;11.560;2022-12-13T01:24:41;24.98;;;10.32;;
48375;SDS011;34178;50.904;11.560;2022-12-13T01:27:06;27.75;;;12.02;;
48375;SDS011;34178;50.904;11.560;2022-12-13T01:29:32;23.45;;;10.60;;
48375;SDS011;34178;50.904;11.560;2022-12-13T01:31:58;21.20;;;9.80;;
48375;SDS011;34178;50.904;11.560;2022-12-13T01:34:24;29.92;;;11.27;;
48375;SDS011;34178;50.904;11.560;2022-12-13T01:36:51;29.88;;;12.65;;
48375;SDS011;34178;50.904;11.560;2022-12-13T01:39:17;25.42;;;10.82;;
48375;SDS011;34178;50.904;11.560;2022-12-13T01:41:44;26.80;;;11.35;;
48375;SDS011;34178;50.904;11.560;2022-12-13T01:47:17;32.28;;;12.38;;
48375;SDS011;34178;50.904;11.560;2022-12-13T01:49:47;73.40;;;25.80;;
48375;SDS011;34178;50.904;11.560;2022-12-13T01:52:14;83.38;;;31.67;;
48375;SDS011;34178;50.904;11.560;2022-12-13T01:54:43;27.10;;;11.63;;
48375;SDS011;34178;50.904;11.560;2022-12-13T01:57:14;24.58;;;11.13;;
48375;SDS011;34178;50.904;11.560;2022-12-13T01:59:43;25.73;;;10.00;;
48375;SDS011;34178;50.904;11.560;2022-12-13T02:02:10;27.73;;;10.95;;
48375;SDS011;34178;50.904;11.560;2022-12-13T02:04:54;25.48;;;10.73;;
48375;SDS011;34178;50.904;11.560;2022-12-13T02:07:30;29.52;;;13.65;;
48375;SDS011;34178;50.904;11.560;2022-12-13T02:09:58;27.20;;;11.23;;
48375;SDS011;34178;50.904;11.560;2022-12-13T02:12:27;26.25;;;11.15;;
48375;SDS011;34178;50.904;11.560;2022-12-13T02:14:55;27.77;;;11.75;;
48375;SDS011;34178;50.904;11.560;2022-12-13T02:28:34;28.90;;;11.15;;
48375;SDS011;34178;50.904;11.560;2022-12-13T02:31:12;26.92;;;9.80;;
48375;SDS011;34178;50.904;11.560;2022-12-13T02:33:55;27.25;;;9.43;;
48375;SDS011;34178;50.904;11.560;2022-12-13T02:36:32;25.20;;;10.80;;
48375;SDS011;34178;50.904;11.560;2022-12-13T02:39:20;23.65;;;10.23;;
48375;SDS011;34178;50.904;11.560;2022-12-13T02:41:50;23.95;;;9.43;;
48375;SDS011;34178;50.904;11.560;2022-12-13T02:44:25;22.75;;;9.65;;
48375;SDS011;34178;50.904;11.560;2022-12-13T02:47:07;26.08;;;10.85;;
48375;SDS011;34178;50.904;11.560;2022-12-13T02:49:39;22.40;;;9.15;;
48375;SDS011;34178;50.904;11.560;2022-12-13T02:52:08;26.35;;;10.13;;
48375;SDS011;34178;50.904;11.560;2022-12-13T02:54:35;26.27;;;10.18;;
48375;SDS011;34178;50.904;11.560;2022-12-13T02:57:01;26.88;;;9.80;;
48375;SDS011;34178;50.904;11.560;2022-12-13T02:59:31;24.00;;;9.68;;
48375;SDS011;34178;50.904;11.560;2022-12-13T03:02:16;22.23;;;9.18;;
48375;SDS011;34178;50.904;11.560;2022-12-13T03:07:57;22.52;;;9.05;;
48375;SDS011;34178;50.904;11.560;2022-12-13T03:10:36;29.73;;;11.40;;
48375;SDS011;34178;50.904;11.560;2022-12-13T03:13:12;22.77;;;10.45;;
48375;SDS011;34178;50.904;11.560;2022-12-13T03:18:33;23.98;;;8.68;;
48375;SDS011;34178;50.904;11.560;2022-12-13T03:21:03;25.17;;;9.73;;
48375;SDS011;34178;50.904;11.560;2022-12-13T03:23:31;23.20;;;9.05;;
48375;SDS011;34178;50.904;11.560;2022-12-13T03:26:16;23.48;;;9.40;;
48375;SDS011;34178;50.904;11.560;2022-12-13T03:28:47;21.42;;;8.45;;
48375;SDS011;34178;50.904;11.560;2022-12-13T03:31:14;20.23;;;8.45;;
48375;SDS011;34178;50.904;11.560;2022-12-13T03:33:40;26.58;;;9.45;;
48375;SDS011;34178;50.904;11.560;2022-12-13T03:36:05;23.05;;;9.15;;
48375;SDS011;34178;50.904;11.560;2022-12-13T03:38:33;26.00;;;9.10;;
48375;SDS011;34178;50.904;11.560;2022-12-13T03:41:03;24.92;;;8.57;;
48375;SDS011;34178;50.904;11.560;2022-12-13T03:43:34;22.85;;;8.75;;
48375;SDS011;34178;50.904;11.560;2022-12-13T03:45:59;25.88;;;8.13;;
48375;SDS011;34178;50.904;11.560;2022-12-13T03:48:25;24.50;;;8.63;;
48375;SDS011;34178;50.904;11.560;2022-12-13T03:50:52;30.50;;;11.00;;
48375;SDS011;34178;50.904;11.560;2022-12-13T03:53:19;23.40;;;11.65;;
48375;SDS011;34178;50.904;11.560;2022-12-13T03:55:46;28.83;;;11.48;;
48375;SDS011;34178;50.904;11.560;2022-12-13T03:58:12;46.10;;;21.40;;
48375;SDS011;34178;50.904;11.560;2022-12-13T04:00:38;23.50;;;10.20;;
48375;SDS011;34178;50.904;11.560;2022-12-13T04:03:03;24.92;;;9.02;;
48375;SDS011;34178;50.904;11.560;2022-12-13T04:05:29;25.17;;;9.07;;
48375;SDS011;34178;50.904;11.560;2022-12-13T04:07:55;25.10;;;9.88;;
48375;SDS011;34178;50.904;11.560;2022-12-13T04:10:22;23.88;;;9.65;;
48375;SDS011;34178;50.904;11.560;2022-12-13T04:12:47;20.90;;;8.10;;
48375;SDS011;34178;50.904;11.560;2022-12-13T04:15:32;28.30;;;9.98;;
48375;SDS011;34178;50.904;11.560;2022-12-13T04:17:57;22.08;;;9.50;;
48375;SDS011;34178;50.904;11.560;2022-12-13T04:20:23;28.02;;;12.35;;
48375;SDS011;34178;50.904;11.560;2022-12-13T04:22:49;25.15;;;10.60;;
48375;SDS011;34178;50.904;11.560;2022-12-13T04:25:14;23.38;;;9.63;;
48375;SDS011;34178;50.904;11.560;2022-12-13T04:27:40;22.83;;;9.45;;
48375;SDS011;34178;50.904;11.560;2022-12-13T04:30:06;19.02;;;8.80;;
48375;SDS011;34178;50.904;11.560;2022-12-13T04:32:32;24.77;;;8.48;;
48375;SDS011;34178;50.904;11.560;2022-12-13T04:34:58;26.85;;;11.63;;
48375;SDS011;34178;50.904;11.560;2022-12-13T04:37:24;23.25;;;9.30;;
48375;SDS011;34178;50.904;11.560;2022-12-13T04:39:49;24.80;;;8.90;;
48375;SDS011;34178;50.904;11.560;2022-12-13T04:42:15;27.35;;;9.88;;
48375;SDS011;34178;50.904;11.560;2022-12-13T04:44:41;26.38;;;10.52;;
48375;SDS011;34178;50.904;11.560;2022-12-13T04:47:07;34.00;;;12.35;;
48375;SDS011;34178;50.904;11.560;2022-12-13T04:49:33;27.10;;;10.98;;
48375;SDS011;34178;50.904;11.560;2022-12-13T04:51:59;28.00;;;10.70;;
48375;SDS011;34178;50.904;11.560;2022-12-13T04:54:26;23.38;;;9.27;;
48375;SDS011;34178;50.904;11.560;2022-12-13T04:56:51;24.83;;;10.00;;
48375;SDS011;34178;50.904;11.560;2022-12-13T04:59:17;28.08;;;10.38;;
48375;SDS011;34178;50.904;11.560;2022-12-13T05:01:43;27.80;;;9.50;;
48375;SDS011;34178;50.904;11.560;2022-12-13T05:04:09;20.77;;;9.55;;
48375;SDS011;34178;50.904;11.560;2022-12-13T05:06:34;30.33;;;13.13;;
48375;SDS011;34178;50.904;11.560;2022-12-13T05:09:00;25.05;;;11.18;;
48375;SDS011;34178;50.904;11.560;2022-12-13T05:11:26;26.05;;;10.23;;
48375;SDS011;34178;50.904;11.560;2022-12-13T05:13:52;25.25;;;9.05;;
48375;SDS011;34178;50.904;11.560;2022-12-13T05:16:17;20.27;;;8.98;;
48375;SDS011;34178;50.904;11.560;2022-12-13T05:18:43;27.50;;;10.98;;
48375;SDS011;34178;50.904;11.560;2022-12-13T05:21:09;29.40;;;11.90;;
48375;SDS011;34178;50.904;11.560;2022-12-13T05:23:36;31.50;;;14.45;;
48375;SDS011;34178;50.904;11.560;2022-12-13T05:26:02;50.55;;;21.58;;
48375;SDS011;34178;50.904;11.560;2022-12-13T05:28:29;47.22;;;18.45;;
48375;SDS011;34178;50.904;11.560;2022-12-13T05:30:56;46.05;;;20.30;;
48375;SDS011;34178;50.904;11.560;2022-12-13T05:33:29;58.35;;;24.60;;
48375;SDS011;34178;50.904;11.560;2022-12-13T05:35:55;66.78;;;28.40;;
48375;SDS011;34178;50.904;11.560;2022-12-13T05:38:21;70.10;;;26.42;;
48375;SDS011;34178;50.904;11.560;2022-12-13T05:40:46;123.32;;;45.20;;
48375;SDS011;34178;50.904;11.560;2022-12-13T05:43:12;96.30;;;39.35;;
48375;SDS011;34178;50.904;11.560;2022-12-13T05:45:38;46.65;;;21.90;;
48375;SDS011;34178;50.904;11.560;2022-12-13T05:48:04;52.78;;;23.13;;
48375;SDS011;34178;50.904;11.560;2022-12-13T05:50:29;37.20;;;16.00;;
48375;SDS011;34178;50.904;11.560;2022-12-13T05:52:55;35.80;;;13.82;;
48375;SDS011;34178;50.904;11.560;2022-12-13T05:55:21;48.33;;;16.50;;
48375;SDS011;34178;50.904;11.560;2022-12-13T05:57:46;52.25;;;21.80;;
48375;SDS011;34178;50.904;11.560;2022-12-13T06:00:12;45.22;;;18.10;;
48375;SDS011;34178;50.904;11.560;2022-12-13T06:02:39;74.70;;;32.80;;
48375;SDS011;34178;50.904;11.560;2022-12-13T06:05:06;84.35;;;35.47;;
48375;SDS011;34178;50.904;11.560;2022-12-13T06:07:34;87.43;;;37.83;;
48375;SDS011;34178;50.904;11.560;2022-12-13T06:10:00;77.03;;;31.80;;
48375;SDS011;34178;50.904;11.560;2022-12-13T06:12:26;57.95;;;24.50;;
48375;SDS011;34178;50.904;11.560;2022-12-13T06:14:52;81.45;;;35.80;;
48375;SDS011;34178;50.904;11.560;2022-12-13T06:17:18;232.15;;;98.07;;
48375;SDS011;34178;50.904;11.560;2022-12-13T06:19:46;79.38;;;36.05;;
48375;SDS011;34178;50.904;11.560;2022-12-13T06:22:11;95.90;;;38.05;;
48375;SDS011;34178;50.904;11.560;2022-12-13T06:24:37;35.00;;;13.75;;
48375;SDS011;34178;50.904;11.560;2022-12-13T06:27:03;38.42;;;14.90;;
48375;SDS011;34178;50.904;11.560;2022-12-13T06:29:29;59.17;;;22.17;;
48375;SDS011;34178;50.904;11.560;2022-12-13T06:31:56;45.90;;;20.10;;
48375;SDS011;34178;50.904;11.560;2022-12-13T06:34:23;35.50;;;14.95;;
48375;SDS011;34178;50.904;11.560;2022-12-13T06:36:49;46.60;;;22.85;;
48375;SDS011;34178;50.904;11.560;2022-12-13T06:39:15;53.53;;;23.23;;
48375;SDS011;34178;50.904;11.560;2022-12-13T06:41:40;32.75;;;13.68;;
48375;SDS011;34178;50.904;11.560;2022-12-13T06:44:06;49.95;;;17.85;;
48375;SDS011;34178;50.904;11.560;2022-12-13T06:46:32;83.10;;;28.92;;
48375;SDS011;34178;50.904;11.560;2022-12-13T06:48:58;91.97;;;31.52;;
48375;SDS011;34178;50.904;11.560;2022-12-13T06:51:24;54.90;;;16.80;;
48375;SDS011;34178;50.904;11.560;2022-12-13T06:53:49;47.70;;;16.58;;
48375;SDS011;34178;50.904;11.560;2022-12-13T06:56:15;54.90;;;19.20;;
48375;SDS011;34178;50.904;11.560;2022-12-13T06:58:41;69.60;;;23.73;;
48375;SDS011;34178;50.904;11.560;2022-12-13T07:01:08;76.95;;;26.45;;
48375;SDS011;34178;50.904;11.560;2022-12-13T07:03:35;94.45;;;30.27;;
48375;SDS011;34178;50.904;11.560;2022-12-13T07:06:06;97.38;;;31.70;;
48375;SDS011;34178;50.904;11.560;2022-12-13T07:08:35;79.05;;;27.92;;
48375;SDS011;34178;50.904;11.560;2022-12-13T07:11:02;79.15;;;28.05;;
48375;SDS011;34178;50.904;11.560;2022-12-13T07:13:27;54.53;;;19.70;;
48375;SDS011;34178;50.904;11.560;2022-12-13T07:15:55;50.55;;;20.23;;
48375;SDS011;34178;50.904;11.560;2022-12-13T07:18:21;57.50;;;21.70;;
48375;SDS011;34178;50.904;11.560;2022-12-13T07:20:46;56.33;;;22.05;;
48375;SDS011;34178;50.904;11.560;2022-12-13T07:23:12;57.85;;;22.05;;
48375;SDS011;34178;50.904;11.560;2022-12-13T07:25:38;66.13;;;24.50;;
48375;SDS011;34178;50.904;11.560;2022-12-13T07:28:05;139.43;;;45.92;;
48375;SDS011;34178;50.904;11.560;2022-12-13T07:30:33;120.55;;;50.95;;
48375;SDS011;34178;50.904;11.560;2022-12-13T07:33:03;78.07;;;37.67;;
48375;SDS011;34178;50.904;11.560;2022-12-13T07:35:30;65.13;;;26.00;;
48375;SDS011;34178;50.904;11.560;2022-12-13T07:37:56;44.95;;;20.35;;
48375;SDS011;34178;50.904;11.560;2022-12-13T07:40:22;86.30;;;35.58;;
48375;SDS011;34178;50.904;11.560;2022-12-13T07:42:51;80.20;;;37.88;;
48375;SDS011;34178;50.904;11.560;2022-12-13T07:45:18;75.65;;;34.85;;
48375;SDS011;34178;50.904;11.560;2022-12-13T07:47:44;47.42;;;21.55;;
48375;SDS011;34178;50.904;11.560;2022-12-13T07:50:10;37.55;;;18.13;;
48375;SDS011;34178;50.904;11.560;2022-12-13T07:52:36;31.80;;;15.10;;
48375;SDS011;34178;50.904;11.560;2022-12-13T07:55:02;36.78;;;19.13;;
48375;SDS011;34178;50.904;11.560;2022-12-13T07:57:29;49.55;;;19.67;;
48375;SDS011;34178;50.904;11.560;2022-12-13T07:59:55;48.95;;;21.65;;
48375;SDS011;34178;50.904;11.560;2022-12-13T08:02:21;61.55;;;24.52;;
48375;SDS011;34178;50.904;11.560;2022-12-13T08:04:46;43.92;;;20.20;;
48375;SDS011;34178;50.904;11.560;2022-12-13T08:07:12;53.53;;;25.15;;
48375;SDS011;34178;50.904;11.560;2022-12-13T08:09:37;43.75;;;21.70;;
48375;SDS011;34178;50.904;11.560;2022-12-13T08:12:03;52.67;;;28.13;;
48375;SDS011;34178;50.904;11.560;2022-12-13T08:14:29;36.88;;;17.83;;
48375;SDS011;34178;50.904;11.560;2022-12-13T08:16:55;40.67;;;18.25;;
48375;SDS011;34178;50.904;11.560;2022-12-13T08:19:21;35.50;;;16.60;;
48375;SDS011;34178;50.904;11.560;2022-12-13T08:21:46;32.70;;;15.05;;
48375;SDS011;34178;50.904;11.560;2022-12-13T08:24:12;44.88;;;16.95;;
48375;SDS011;34178;50.904;11.560;2022-12-13T08:26:38;44.90;;;20.80;;
48375;SDS011;34178;50.904;11.560;2022-12-13T08:29:04;81.97;;;35.67;;
48375;SDS011;34178;50.904;11.560;2022-12-13T08:31:30;33.15;;;14.65;;
48375;SDS011;34178;50.904;11.560;2022-12-13T08:33:56;27.98;;;13.40;;
48375;SDS011;34178;50.904;11.560;2022-12-13T08:36:21;40.20;;;17.25;;
48375;SDS011;34178;50.904;11.560;2022-12-13T08:38:48;62.10;;;34.25;;
48375;SDS011;34178;50.904;11.560;2022-12-13T08:41:17;38.40;;;19.03;;
48375;SDS011;34178;50.904;11.560;2022-12-13T08:43:43;57.45;;;24.35;;
48375;SDS011;34178;50.904;11.560;2022-12-13T08:46:09;62.45;;;23.58;;
48375;SDS011;34178;50.904;11.560;2022-12-13T08:48:35;52.38;;;22.58;;
48375;SDS011;34178;50.904;11.560;2022-12-13T08:51:01;53.17;;;21.92;;
48375;SDS011;34178;50.904;11.560;2022-12-13T08:53:28;59.33;;;25.40;;
48375;SDS011;34178;50.904;11.560;2022-12-13T08:55:57;48.47;;;20.90;;
48375;SDS011;34178;50.904;11.560;2022-12-13T08:58:27;45.30;;;21.38;;
48375;SDS011;34178;50.904;11.560;2022-12-13T09:00:53;50.92;;;22.70;;
48375;SDS011;34178;50.904;11.560;2022-12-13T09:03:19;42.53;;;20.88;;
48375;SDS011;34178;50.904;11.560;2022-12-13T09:05:45;77.82;;;29.17;;
48375;SDS011;34178;50.904;11.560;2022-12-13T09:08:10;212.65;;;65.57;;
48375;SDS011;34178;50.904;11.560;2022-12-13T09:10:36;107.60;;;35.80;;
48375;SDS011;34178;50.904;11.560;2022-12-13T09:13:02;76.15;;;28.10;;
48375;SDS011;34178;50.904;11.560;2022-12-13T09:15:28;114.72;;;34.08;;
48375;SDS011;34178;50.904;11.560;2022-12-13T09:17:55;97.88;;;33.25;;
48375;SDS011;34178;50.904;11.560;2022-12-13T09:20:21;51.70;;;27.58;;
48375;SDS011;34178;50.904;11.560;2022-12-13T09:22:47;132.50;;;53.78;;
48375;SDS011;34178;50.904;11.560;2022-12-13T09:25:13;95.07;;;43.75;;
48375;SDS011;34178;50.904;11.560;2022-12-13T09:27:38;110.05;;;44.80;;
48375;SDS011;34178;50.904;11.560;2022-12-13T09:30:04;104.65;;;47.15;;
48375;SDS011;34178;50.904;11.560;2022-12-13T09:32:32;58.40;;;29.15;;
48375;SDS011;34178;50.904;11.560;2022-12-13T09:34:58;65.32;;;34.58;;
48375;SDS011;34178;50.904;11.560;2022-12-13T09:37:23;68.82;;;33.78;;
48375;SDS011;34178;50.904;11.560;2022-12-13T09:39:49;69.57;;;34.28;;
48375;SDS011;34178;50.904;11.560;2022-12-13T09:42:17;69.40;;;32.30;;
48375;SDS011;34178;50.904;11.560;2022-12-13T09:44:57;74.28;;;36.35;;
48375;SDS011;34178;50.904;11.560;2022-12-13T09:47:36;93.90;;;36.17;;
48375;SDS011;34178;50.904;11.560;2022-12-13T09:50:11;91.55;;;28.73;;
48375;SDS011;34178;50.904;11.560;2022-12-13T09:52:38;53.83;;;18.75;;
48375;SDS011;34178;50.904;11.560;2022-12-13T09:55:15;48.28;;;17.45;;
48375;SDS011;34178;50.904;11.560;2022-12-13T09:57:42;41.90;;;15.05;;
48375;SDS011;34178;50.904;11.560;2022-12-13T10:00:12;31.90;;;13.73;;
48375;SDS011;34178;50.904;11.560;2022-12-13T10:02:45;32.22;;;13.77;;
48375;SDS011;34178;50.904;11.560;2022-12-13T10:07:46;33.92;;;14.25;;
48375;SDS011;34178;50.904;11.560;2022-12-13T10:10:13;33.45;;;13.85;;
48375;SDS011;34178;50.904;11.560;2022-12-13T10:12:40;33.88;;;13.30;;
48375;SDS011;34178;50.904;11.560;2022-12-13T10:15:09;30.33;;;14.13;;
48375;SDS011;34178;50.904;11.560;2022-12-13T10:17:39;29.65;;;13.30;;
48375;SDS011;34178;50.904;11.560;2022-12-13T10:20:06;30.35;;;13.48;;
48375;SDS011;34178;50.904;11.560;2022-12-13T10:22:40;29.45;;;14.48;;
48375;SDS011;34178;50.904;11.560;2022-12-13T10:25:05;33.78;;;13.05;;
48375;SDS011;34178;50.904;11.560;2022-12-13T10:32:48;33.72;;;14.80;;
48375;SDS011;34178;50.904;11.560;2022-12-13T10:35:24;34.83;;;14.80;;
48375;SDS011;34178;50.904;11.560;2022-12-13T10:37:51;35.75;;;15.18;;
48375;SDS011;34178;50.904;11.560;2022-12-13T10:43:21;35.22;;;15.88;;
48375;SDS011;34178;50.904;11.560;2022-12-13T10:48:28;36.10;;;16.10;;
48375;SDS011;34178;50.904;11.560;2022-12-13T10:51:04;30.60;;;14.65;;
48375;SDS011;34178;50.904;11.560;2022-12-13T10:53:34;33.50;;;14.45;;
48375;SDS011;34178;50.904;11.560;2022-12-13T10:56:05;29.92;;;14.40;;
48375;SDS011;34178;50.904;11.560;2022-12-13T10:58:33;35.47;;;15.18;;
48375;SDS011;34178;50.904;11.560;2022-12-13T11:03:58;32.53;;;13.88;;
48375;SDS011;34178;50.904;11.560;2022-12-13T11:06:26;30.20;;;14.35;;
48375;SDS011;34178;50.904;11.560;2022-12-13T11:09:12;30.75;;;14.07;;
48375;SDS011;34178;50.904;11.560;2022-12-13T11:11:57;31.60;;;14.05;;
48375;SDS011;34178;50.904;11.560;2022-12-13T11:16:54;31.33;;;13.13;;
48375;SDS011;34178;50.904;11.560;2022-12-13T11:22:08;29.90;;;13.65;;
48375;SDS011;34178;50.904;11.560;2022-12-13T11:24:42;30.88;;;13.55;;
48375;SDS011;34178;50.904;11.560;2022-12-13T11:33:33;32.20;;;14.30;;
48375;SDS011;34178;50.904;11.560;2022-12-13T11:41:47;35.45;;;15.57;;
48375;SDS011;34178;50.904;11.560;2022-12-13T11:46:58;30.77;;;14.65;;
48375;SDS011;34178;50.904;11.560;2022-12-13T11:52:17;32.58;;;15.05;;
48375;SDS011;34178;50.904;11.560;2022-12-13T12:02:52;28.40;;;13.52;;
48375;SDS011;34178;50.904;11.560;2022-12-13T12:05:36;35.72;;;16.17;;
48375;SDS011;34178;50.904;11.560;2022-12-13T12:08:41;32.53;;;15.05;;
48375;SDS011;34178;50.904;11.560;2022-12-13T12:11:16;31.45;;;14.52;;
48375;SDS011;34178;50.904;11.560;2022-12-13T12:13:52;35.40;;;15.35;;
48375;SDS011;34178;50.904;11.560;2022-12-13T12:16:56;30.85;;;14.32;;
48375;SDS011;34178;50.904;11.560;2022-12-13T12:19:22;32.08;;;14.10;;
48375;SDS011;34178;50.904;11.560;2022-12-13T12:44:28;44.08;;;17.63;;
48375;SDS011;34178;50.904;11.560;2022-12-13T12:49:53;33.78;;;15.68;;
48375;SDS011;34178;50.904;11.560;2022-12-13T12:53:00;29.65;;;13.93;;
48375;SDS011;34178;50.904;11.560;2022-12-13T13:03:39;45.05;;;17.25;;
48375;SDS011;34178;50.904;11.560;2022-12-13T13:06:14;138.00;;;48.25;;
48375;SDS011;34178;50.904;11.560;2022-12-13T13:11:29;117.25;;;39.17;;
48375;SDS011;34178;50.904;11.560;2022-12-13T13:16:50;64.63;;;26.10;;
48375;SDS011;34178;50.904;11.560;2022-12-13T13:21:48;46.45;;;18.55;;
48375;SDS011;34178;50.904;11.560;2022-12-13T13:24:17;50.45;;;18.48;;
48375;SDS011;34178;50.904;11.560;2022-12-13T13:26:49;58.95;;;21.95;;
48375;SDS011;34178;50.904;11.560;2022-12-13T13:32:33;52.30;;;19.92;;
48375;SDS011;34178;50.904;11.560;2022-12-13T13:34:47;240.13;;;81.60;;
48375;SDS011;34178;50.904;11.560;2022-12-13T13:47:46;29.27;;;11.70;;
48375;SDS011;34178;50.904;11.560;2022-12-13T14:02:02;28.00;;;12.85;;
48375;SDS011;34178;50.904;11.560;2022-12-13T14:13:34;109.68;;;43.83;;
48375;SDS011;34178;50.904;11.560;2022-12-13T14:29:00;72.80;;;28.35;;
48375;SDS011;34178;50.904;11.560;2022-12-13T14:31:42;103.13;;;36.72;;
48375;SDS011;34178;50.904;11.560;2022-12-13T14:34:24;171.52;;;53.08;;
48375;SDS011;34178;50.904;11.560;2022-12-13T14:39:29;75.10;;;29.38;;
48375;SDS011;34178;50.904;11.560;2022-12-13T14:41:58;201.15;;;70.28;;
48375;SDS011;34178;50.904;11.560;2022-12-13T14:44:26;69.78;;;29.45;;
48375;SDS011;34178;50.904;11.560;2022-12-13T14:46:53;84.10;;;35.22;;
48375;SDS011;34178;50.904;11.560;2022-12-13T14:49:25;113.28;;;43.30;;
48375;SDS011;34178;50.904;11.560;2022-12-13T14:57:18;102.88;;;37.00;;
48375;SDS011;34178;50.904;11.560;2022-12-13T14:59:55;139.30;;;49.22;;
48375;SDS011;34178;50.904;11.560;2022-12-13T15:02:24;98.40;;;38.63;;
48375;SDS011;34178;50.904;11.560;2022-12-13T15:04:55;66.87;;;27.80;;
48375;SDS011;34178;50.904;11.560;2022-12-13T15:07:32;92.25;;;33.50;;
48375;SDS011;34178;50.904;11.560;2022-12-13T15:12:52;88.90;;;33.90;;
48375;SDS011;34178;50.904;11.560;2022-12-13T15:15:37;44.28;;;20.52;;
48375;SDS011;34178;50.904;11.560;2022-12-13T15:18:24;50.03;;;21.10;;
48375;SDS011;34178;50.904;11.560;2022-12-13T15:20:49;78.25;;;29.63;;
48375;SDS011;34178;50.904;11.560;2022-12-13T15:28:40;93.22;;;30.85;;
48375;SDS011;34178;50.904;11.560;2022-12-13T15:31:08;79.82;;;29.00;;
48375;SDS011;34178;50.904;11.560;2022-12-13T15:33:35;132.43;;;40.95;;
48375;SDS011;34178;50.904;11.560;2022-12-13T15:36:08;69.88;;;26.73;;
48375;SDS011;34178;50.904;11.560;2022-12-13T15:38:45;121.20;;;39.88;;
48375;SDS011;34178;50.904;11.560;2022-12-13T15:41:19;86.13;;;30.85;;
48375;SDS011;34178;50.904;11.560;2022-12-13T15:47:05;66.55;;;24.58;;
48375;SDS011;34178;50.904;11.560;2022-12-13T15:49:49;67.30;;;24.88;;
48375;SDS011;34178;50.904;11.560;2022-12-13T15:54:54;82.28;;;30.67;;
48375;SDS011;34178;50.904;11.560;2022-12-13T16:00:24;153.13;;;54.60;;
48375;SDS011;34178;50.904;11.560;2022-12-13T16:02:55;202.57;;;98.63;;
48375;SDS011;34178;50.904;11.560;2022-12-13T16:05:40;126.00;;;68.75;;
48375;SDS011;34178;50.904;11.560;2022-12-13T16:08:23;60.40;;;25.95;;
48375;SDS011;34178;50.904;11.560;2022-12-13T16:10:52;62.45;;;27.15;;
48375;SDS011;34178;50.904;11.560;2022-12-13T16:13:23;55.28;;;26.50;;
48375;SDS011;34178;50.904;11.560;2022-12-13T16:15:53;63.75;;;30.40;;
48375;SDS011;34178;50.904;11.560;2022-12-13T16:18:24;80.53;;;33.85;;
48375;SDS011;34178;50.904;11.560;2022-12-13T16:21:05;72.43;;;33.17;;
48375;SDS011;34178;50.904;11.560;2022-12-13T16:23:30;65.72;;;29.40;;
48375;SDS011;34178;50.904;11.560;2022-12-13T16:25:56;88.43;;;41.30;;
48375;SDS011;34178;50.904;11.560;2022-12-13T16:28:21;59.85;;;26.33;;
48375;SDS011;34178;50.904;11.560;2022-12-13T16:33:16;100.28;;;43.92;;
48375;SDS011;34178;50.904;11.560;2022-12-13T16:35:42;99.30;;;39.85;;
48375;SDS011;34178;50.904;11.560;2022-12-13T16:38:08;86.55;;;38.65;;
48375;SDS011;34178;50.904;11.560;2022-12-13T16:40:35;173.68;;;73.35;;
48375;SDS011;34178;50.904;11.560;2022-12-13T16:43:02;91.25;;;41.13;;
48375;SDS011;34178;50.904;11.560;2022-12-13T16:45:30;71.85;;;33.90;;
48375;SDS011;34178;50.904;11.560;2022-12-13T16:48:04;87.32;;;41.20;;
48375;SDS011;34178;50.904;11.560;2022-12-13T16:50:31;71.97;;;34.72;;
48375;SDS011;34178;50.904;11.560;2022-12-13T16:52:57;65.50;;;30.35;;
48375;SDS011;34178;50.904;11.560;2022-12-13T16:55:23;64.47;;;31.13;;
48375;SDS011;34178;50.904;11.560;2022-12-13T16:58:09;66.68;;;30.65;;
48375;SDS011;34178;50.904;11.560;2022-12-13T17:00:37;61.90;;;26.23;;
48375;SDS011;34178;50.904;11.560;2022-12-13T17:03:04;52.75;;;24.77;;
48375;SDS011;34178;50.904;11.560;2022-12-13T17:05:31;60.40;;;27.38;;
48375;SDS011;34178;50.904;11.560;2022-12-13T17:07:58;73.15;;;35.75;;
48375;SDS011;34178;50.904;11.560;2022-12-13T17:10:24;53.72;;;24.80;;
48375;SDS011;34178;50.904;11.560;2022-12-13T17:12:51;75.50;;;33.15;;
48375;SDS011;34178;50.904;11.560;2022-12-13T17:15:17;82.68;;;39.25;;
48375;SDS011;34178;50.904;11.560;2022-12-13T17:17:43;65.28;;;29.05;;
48375;SDS011;34178;50.904;11.560;2022-12-13T17:20:11;67.88;;;29.65;;
48375;SDS011;34178;50.904;11.560;2022-12-13T17:22:42;61.40;;;27.13;;